Time;durP1;ratioP1;P1;durP2;ratioP2;P2;SDS_P1;SDS_P2;PMS_P1;PMS_P2;Temp;Humidity;BMP_temperature;BMP_pressure;BME280_temperature;BME280_humidity;BME280_pressure;Samples;Min_cycle;Max_cycle;Signal;HPM_P1;HPM_P2
2023/09/27 10:46:15;;;;;;;4.45;3.00;;;23.60;77.70;;;;;;6260221;27;20436;-66
2023/09/27 10:49:20;;;;;;;3.83;3.25;;;23.50;79.60;;;;;;6242975;28;20057;-65
2023/09/27 10:52:43;;;;;;;5.03;2.78;;;23.50;78.80;;;;;;6339606;27;20668;-65
2023/09/27 10:55:57;;;;;;;4.18;3.35;;;23.60;78.70;;;;;;6360011;27;20330;-68
2023/09/27 10:58:59;;;;;;;5.03;4.47;;;23.60;79.20;;;;;;6292908;27;20052;-65
2023/09/27 11:02:02;;;;;;;3.25;2.95;;;23.50;79.80;;;;;;6271298;28;20046;-65
2023/09/27 11:05:05;;;;;;;4.35;3.95;;;23.50;79.10;;;;;;6251206;28;20127;-65
2023/09/27 11:08:06;;;;;;;5.38;2.92;;;23.60;79.50;;;;;;6270303;28;20060;-67
2023/09/27 11:11:11;;;;;;;5.63;3.83;;;23.60;79.70;;;;;;6252458;28;68019;-65
2023/09/27 11:14:13;;;;;;;4.50;3.63;;;23.60;79.60;;;;;;6248651;28;20053;-66
2023/09/27 11:17:17;;;;;;;4.63;3.30;;;23.60;79.70;;;;;;6245730;28;20056;-66
2023/09/27 11:20:20;;;;;;;9.77;5.85;;;23.60;80.00;;;;;;6266539;28;20574;-66
2023/09/27 11:23:24;;;;;;;4.25;3.65;;;23.60;79.70;;;;;;6245794;28;20045;-66
2023/09/27 11:26:28;;;;;;;3.50;3.03;;;23.60;80.00;;;;;;6255807;28;20073;-66
2023/09/27 11:29:30;;;;;;;3.90;2.80;;;23.70;79.40;;;;;;6234108;28;20061;-66
2023/09/27 11:32:49;;;;;;;4.00;2.72;;;23.70;79.00;;;;;;6236931;28;20414;-66
2023/09/27 11:35:51;;;;;;;3.78;3.45;;;23.60;80.00;;;;;;6251741;28;20049;-66
2023/09/27 11:38:53;;;;;;;3.28;2.90;;;23.60;80.00;;;;;;6240775;28;20060;-66
2023/09/27 11:44:19;;;;;;;3.38;2.80;;;23.70;78.80;;;;;;6350295;27;20684;-65
2023/09/27 11:47:21;;;;;;;3.40;2.88;;;23.80;79.70;;;;;;6341534;28;20051;-65
2023/09/27 11:50:23;;;;;;;4.35;3.50;;;23.80;79.30;;;;;;6346239;28;20051;-64
2023/09/27 11:54:45;;;;;;;4.53;3.08;;;23.80;78.90;;;;;;6319118;27;20341;-64
2023/09/27 11:57:47;;;;;;;4.85;2.67;;;23.80;79.90;;;;;;6269073;28;20041;-70
2023/09/27 12:08:42;;;;;;;4.85;3.58;;;27.10;76.40;;;;;;6344318;27;20354;-84
2023/09/27 12:11:44;;;;;;;5.10;3.25;;;28.40;71.90;;;;;;6272634;28;20052;-84
2023/09/27 12:14:46;;;;;;;5.25;3.08;;;29.30;68.60;;;;;;6284032;27;20060;-85
2023/09/27 12:17:47;;;;;;;5.72;2.75;;;29.90;67.00;;;;;;6301168;28;20044;-83
2023/09/27 12:20:49;;;;;;;3.50;3.03;;;30.30;65.00;;;;;;6308227;28;20052;-84
2023/09/27 12:23:52;;;;;;;10.25;3.00;;;31.10;65.60;;;;;;6311534;28;20080;-79
2023/09/27 12:26:54;;;;;;;44.13;6.40;;;31.10;65.20;;;;;;6294153;28;20041;-86
2023/09/27 12:29:55;;;;;;;3.85;3.20;;;31.10;65.90;;;;;;6310862;28;20048;-84
2023/09/27 12:32:57;;;;;;;3.65;2.40;;;31.10;65.70;;;;;;6310238;28;20132;-81
2023/09/27 12:35:59;;;;;;;5.13;3.72;;;31.00;65.70;;;;;;6313773;28;20045;-78
2023/09/27 12:39:02;;;;;;;2.60;2.10;;;31.10;65.80;;;;;;6324684;28;20051;-80
2023/09/27 12:42:04;;;;;;;4.78;2.20;;;31.30;65.60;;;;;;6328757;28;20051;-79
2023/09/27 12:45:07;;;;;;;4.65;2.15;;;31.50;65.20;;;;;;6329151;28;20055;-80
2023/09/27 12:48:09;;;;;;;4.28;3.60;;;31.80;64.70;;;;;;6327735;28;20073;-79
2023/09/27 12:51:11;;;;;;;2.85;2.20;;;32.10;64.50;;;;;;6330427;28;20052;-79
2023/09/27 12:54:14;;;;;;;3.53;2.20;;;32.20;63.50;;;;;;6315021;28;20079;-79
2023/09/27 12:57:16;;;;;;;2.38;2.15;;;32.30;63.00;;;;;;6305616;28;20060;-81
2023/09/27 13:00:18;;;;;;;3.55;2.55;;;32.30;62.30;;;;;;6306627;28;20040;-79
2023/09/27 13:03:22;;;;;;;5.75;2.10;;;32.50;61.80;;;;;;6303260;28;20071;-79
2023/09/27 13:06:23;;;;;;;3.97;2.20;;;32.60;61.20;;;;;;6308558;28;20048;-79
2023/09/27 13:09:26;;;;;;;2.20;2.00;;;32.60;60.60;;;;;;6307870;28;20067;-79
2023/09/27 13:12:28;;;;;;;4.07;2.58;;;32.70;60.10;;;;;;6303901;28;20057;-80
2023/09/27 13:15:30;;;;;;;3.40;2.10;;;32.70;59.80;;;;;;6327768;28;20059;-79
2023/09/27 13:18:32;;;;;;;2.22;1.88;;;32.70;59.80;;;;;;6319167;28;20041;-80
2023/09/27 13:21:33;;;;;;;3.05;2.75;;;32.70;59.50;;;;;;6313122;28;20044;-80
2023/09/27 13:24:36;;;;;;;7.90;3.15;;;32.60;59.30;;;;;;6304689;28;20137;-79
2023/09/27 13:27:39;;;;;;;3.05;2.15;;;32.60;59.10;;;;;;6291752;28;20040;-78
2023/09/27 13:30:41;;;;;;;2.22;1.83;;;32.60;59.00;;;;;;6315121;28;20062;-79
2023/09/27 13:33:42;;;;;;;2.47;2.20;;;32.50;58.80;;;;;;6282149;28;20630;-78
2023/09/27 13:36:44;;;;;;;2.50;1.92;;;32.40;58.90;;;;;;6295844;28;20051;-79
2023/09/27 13:39:47;;;;;;;2.20;2.00;;;32.50;58.70;;;;;;6288208;28;20155;-79
2023/09/27 13:42:49;;;;;;;4.47;2.58;;;32.50;58.30;;;;;;6295001;28;20043;-79
2023/09/27 13:45:51;;;;;;;3.78;2.10;;;32.60;58.20;;;;;;6297884;28;20478;-79
2023/09/27 13:48:52;;;;;;;4.07;2.17;;;32.70;58.00;;;;;;6285921;28;20048;-77
2023/09/27 13:51:54;;;;;;;1.95;1.55;;;32.70;57.70;;;;;;6287918;28;20045;-80
2023/09/27 13:54:57;;;;;;;2.90;2.15;;;32.60;57.70;;;;;;6312984;28;20055;-78
2023/09/27 13:57:59;;;;;;;3.58;3.10;;;32.50;57.50;;;;;;6313560;28;20048;-78
2023/09/27 14:01:00;;;;;;;3.53;2.58;;;32.60;57.30;;;;;;6309289;28;20059;-78
2023/09/27 14:04:03;;;;;;;2.28;1.98;;;32.70;57.10;;;;;;6281403;28;20514;-78
2023/09/27 14:07:05;;;;;;;3.35;1.98;;;32.70;56.70;;;;;;6291401;28;20096;-78
2023/09/27 14:10:09;;;;;;;3.05;1.85;;;32.60;56.70;;;;;;6286192;28;20045;-79
2023/09/27 14:13:11;;;;;;;3.08;1.70;;;32.60;56.70;;;;;;6291686;28;20059;-79
2023/09/27 14:16:15;;;;;;;2.17;1.95;;;32.70;56.30;;;;;;6308426;28;20131;-79
2023/09/27 14:19:16;;;;;;;1.83;1.40;;;32.60;55.70;;;;;;6314310;28;20049;-79
2023/09/27 14:22:18;;;;;;;1.77;1.30;;;32.50;54.20;;;;;;6306029;28;20048;-79
2023/09/27 14:25:21;;;;;;;2.65;1.60;;;32.40;53.80;;;;;;6285920;28;20045;-79
2023/09/27 14:28:24;;;;;;;2.70;1.35;;;32.50;53.30;;;;;;6286274;28;20037;-79
2023/09/27 14:31:28;;;;;;;2.95;1.20;;;32.50;52.50;;;;;;6278199;28;20049;-78
2023/09/27 14:34:33;;;;;;;1.50;1.40;;;31.90;52.30;;;;;;6284281;28;20059;-77
2023/09/27 14:37:36;;;;;;;1.60;1.17;;;31.40;52.30;;;;;;6282687;28;20049;-78
2023/09/27 14:40:39;;;;;;;3.15;1.40;;;31.30;52.70;;;;;;6283119;28;20145;-78
2023/09/27 14:43:41;;;;;;;4.20;1.35;;;31.20;52.50;;;;;;6296016;28;20041;-79
2023/09/27 14:46:42;;;;;;;2.45;1.65;;;30.90;52.50;;;;;;6309950;28;20421;-77
2023/09/27 14:49:44;;;;;;;2.63;1.48;;;30.50;53.10;;;;;;6303963;28;20052;-78
2023/09/27 14:52:46;;;;;;;2.35;1.38;;;30.60;53.30;;;;;;6307982;28;20055;-78
2023/09/27 14:55:49;;;;;;;2.53;1.50;;;30.50;53.20;;;;;;6299608;28;20051;-81
2023/09/27 14:58:51;;;;;;;1.90;1.73;;;30.20;53.00;;;;;;6291978;28;20037;-78
2023/09/27 15:05:04;;;;;;;1.95;1.02;;;29.60;53.70;;;;;;6845296;23;20724;-77
2023/09/27 15:08:06;;;;;;;1.92;1.58;;;29.30;54.40;;;;;;6216609;28;20046;-76
2023/09/27 15:11:09;;;;;;;1.38;1.15;;;29.10;54.20;;;;;;6197704;28;20061;-78
2023/09/27 15:14:11;;;;;;;4.85;1.27;;;28.70;54.50;;;;;;6196857;28;20418;-77
2023/09/27 15:17:13;;;;;;;2.00;1.38;;;28.40;55.30;;;;;;6212321;23;20046;-77
2023/09/27 15:20:15;;;;;;;3.53;1.52;;;28.00;55.40;;;;;;6196146;28;20061;-77
2023/09/27 15:23:21;;;;;;;1.55;1.45;;;27.70;56.00;;;;;;6204249;28;20050;-77
2023/09/27 15:26:27;;;;;;;1.70;1.38;;;27.40;56.40;;;;;;6218710;28;20426;-77
2023/09/27 15:29:29;;;;;;;2.75;2.15;;;27.00;56.80;;;;;;6198307;28;20046;-77
2023/09/27 15:32:32;;;;;;;1.58;1.38;;;26.70;57.00;;;;;;6197421;28;20042;-78
2023/09/27 15:36:00;;;;;;;5.05;1.40;;;26.50;57.40;;;;;;6194314;28;20046;-77
2023/09/27 15:39:04;;;;;;;2.58;2.38;;;26.20;58.00;;;;;;6176543;28;20046;-77
2023/09/27 15:42:08;;;;;;;2.25;1.70;;;26.00;58.30;;;;;;6215317;28;20046;-77
2023/09/27 15:45:10;;;;;;;4.93;1.83;;;25.80;58.80;;;;;;6208985;28;20046;-76
2023/09/27 15:48:15;;;;;;;5.68;1.27;;;25.60;59.30;;;;;;6207395;28;20104;-77
2023/09/27 15:51:16;;;;;;;3.90;1.48;;;25.50;59.90;;;;;;6196758;28;20173;-77
2023/09/27 15:54:18;;;;;;;2.20;1.40;;;25.30;60.10;;;;;;6198562;28;20038;-78
2023/09/27 15:57:24;;;;;;;1.45;1.35;;;25.20;60.80;;;;;;6196331;28;20149;-76
2023/09/27 16:00:26;;;;;;;3.45;1.42;;;25.00;61.20;;;;;;6197438;28;20046;-77
2023/09/27 16:03:29;;;;;;;3.33;1.40;;;24.90;61.60;;;;;;6208803;28;20054;-77
2023/09/27 16:06:31;;;;;;;8.65;1.40;;;24.80;62.00;;;;;;6196392;28;20042;-78
2023/09/27 16:09:36;;;;;;;1.52;1.42;;;24.70;62.30;;;;;;6196527;28;20088;-77
2023/09/27 16:12:41;;;;;;;1.60;1.50;;;24.60;62.60;;;;;;6196305;28;20099;-77
2023/09/27 16:15:44;;;;;;;1.63;1.30;;;24.50;63.50;;;;;;6196117;28;20046;-77
2023/09/27 16:18:46;;;;;;;4.18;1.40;;;24.40;63.10;;;;;;6200670;28;20045;-77
2023/09/27 16:21:48;;;;;;;2.25;1.83;;;24.40;63.30;;;;;;6186705;28;20045;-78
2023/09/27 16:24:50;;;;;;;2.33;1.10;;;24.30;63.50;;;;;;6186647;28;20046;-78
2023/09/27 16:27:53;;;;;;;1.90;1.60;;;24.20;63.90;;;;;;6211245;28;20408;-76
2023/09/27 16:31:02;;;;;;;2.65;1.92;;;24.00;64.80;;;;;;6198227;28;20066;-76
2023/09/27 16:34:11;;;;;;;4.15;1.50;;;23.90;66.20;;;;;;6190214;28;20077;-77
2023/09/27 16:37:16;;;;;;;3.50;2.13;;;23.70;67.80;;;;;;6195953;28;20042;-77
2023/09/27 16:40:28;;;;;;;11.82;6.50;;;23.50;69.60;;;;;;6196968;28;20065;-77
2023/09/27 16:43:32;;;;;;;10.82;6.82;;;23.30;70.40;;;;;;6196186;28;20393;-77
2023/09/27 16:46:33;;;;;;;9.05;3.55;;;23.10;71.30;;;;;;6193741;28;20043;-76
2023/09/27 16:49:35;;;;;;;18.77;8.30;;;22.80;72.00;;;;;;6197760;28;20050;-77
2023/09/27 16:52:37;;;;;;;5.07;3.63;;;22.70;72.90;;;;;;6196325;28;20054;-78
2023/09/27 16:55:41;;;;;;;2.58;2.10;;;22.50;73.60;;;;;;6199772;28;20042;-77
2023/09/27 16:58:45;;;;;;;2.53;1.80;;;22.20;74.40;;;;;;6200649;28;20124;-77
2023/09/27 17:01:46;;;;;;;1.95;1.58;;;22.00;75.40;;;;;;6151895;28;20050;-77
2023/09/27 17:04:48;;;;;;;1.77;1.67;;;21.80;76.00;;;;;;6206058;28;20050;-77
2023/09/27 17:07:50;;;;;;;4.63;1.95;;;21.60;76.90;;;;;;6192681;28;20042;-77
2023/09/27 17:10:52;;;;;;;4.40;2.03;;;21.40;77.80;;;;;;6203244;28;20398;-78
2023/09/27 17:13:55;;;;;;;4.47;3.13;;;21.10;78.70;;;;;;6203430;28;20046;-77
2023/09/27 17:16:57;;;;;;;3.45;2.33;;;21.00;79.40;;;;;;6203751;28;20061;-79
2023/09/27 17:19:59;;;;;;;2.63;2.08;;;20.80;80.00;;;;;;6202288;28;20492;-80
2023/09/27 17:23:00;;;;;;;3.33;1.85;;;20.60;80.70;;;;;;6202366;28;20050;-80
2023/09/27 17:26:03;;;;;;;3.38;2.25;;;20.30;81.50;;;;;;6202907;28;20046;-79
2023/09/27 17:29:06;;;;;;;2.22;2.03;;;20.10;82.60;;;;;;6203507;28;20050;-79
2023/09/27 17:32:07;;;;;;;2.53;2.22;;;19.90;83.60;;;;;;6198329;28;20050;-78
2023/09/27 17:35:10;;;;;;;2.67;1.75;;;19.70;84.40;;;;;;6205448;28;20093;-76
2023/09/27 17:38:12;;;;;;;3.60;2.63;;;19.50;85.10;;;;;;6200713;28;20415;-76
2023/09/27 17:41:14;;;;;;;2.58;2.28;;;19.40;85.60;;;;;;6200794;28;20452;-77
2023/09/27 17:44:17;;;;;;;2.90;2.10;;;19.10;86.40;;;;;;6200089;28;20419;-75
2023/09/27 17:47:19;;;;;;;3.72;2.20;;;18.80;87.50;;;;;;6198626;28;20201;-76
2023/09/27 17:50:20;;;;;;;3.03;1.63;;;18.60;88.70;;;;;;6198351;28;20049;-75
2023/09/27 17:53:22;;;;;;;3.72;2.30;;;18.50;89.60;;;;;;6197042;28;20150;-75
2023/09/27 17:56:24;;;;;;;2.92;2.30;;;18.40;90.40;;;;;;6202526;28;20053;-74
2023/09/27 17:59:28;;;;;;;2.60;2.40;;;18.30;90.30;;;;;;6203591;28;20038;-76
2023/09/27 18:02:31;;;;;;;2.25;2.05;;;18.20;90.70;;;;;;6206059;28;20619;-77
2023/09/27 18:05:33;;;;;;;3.03;2.35;;;18.00;91.00;;;;;;6199845;28;20145;-77
2023/09/27 18:08:35;;;;;;;2.72;2.22;;;17.80;91.50;;;;;;6201421;28;20050;-76
2023/09/27 18:11:37;;;;;;;4.60;2.47;;;17.70;92.00;;;;;;6200573;28;20053;-77
2023/09/27 18:14:40;;;;;;;4.38;2.75;;;17.50;92.50;;;;;;6202911;28;20053;-77
2023/09/27 18:17:41;;;;;;;4.05;2.78;;;17.40;93.00;;;;;;6199290;28;20043;-77
2023/09/27 18:20:43;;;;;;;4.53;2.67;;;17.20;93.40;;;;;;6200205;28;20050;-76
2023/09/27 18:23:45;;;;;;;3.05;2.70;;;17.10;94.00;;;;;;6199588;28;20046;-77
2023/09/27 18:26:47;;;;;;;7.05;2.95;;;16.90;94.50;;;;;;6199474;28;20039;-76
2023/09/27 18:29:50;;;;;;;3.15;2.80;;;16.70;95.10;;;;;;6202282;28;20050;-77
2023/09/27 18:32:51;;;;;;;3.75;2.92;;;16.70;95.80;;;;;;6200575;28;20046;-76
2023/09/27 18:35:53;;;;;;;3.88;2.65;;;16.60;96.40;;;;;;6200346;28;20531;-77
2023/09/27 18:38:55;;;;;;;3.47;3.08;;;16.50;97.10;;;;;;6191954;28;20043;-77
2023/09/27 18:41:57;;;;;;;4.93;3.03;;;16.50;97.80;;;;;;6200614;28;20054;-76
2023/09/27 18:45:00;;;;;;;3.95;2.25;;;16.40;98.40;;;;;;6200300;28;20054;-76
2023/09/27 18:48:07;;;;;;;5.50;2.53;;;16.40;99.10;;;;;;6201276;28;20050;-77
2023/09/27 18:51:09;;;;;;;4.70;3.30;;;16.30;99.70;;;;;;6197595;28;20047;-76
2023/09/27 18:54:11;;;;;;;3.33;2.90;;;16.20;99.90;;;;;;6197054;28;20511;-76
2023/09/27 18:57:13;;;;;;;4.75;2.80;;;16.20;99.90;;;;;;6197629;28;20062;-77
2023/09/27 19:00:16;;;;;;;3.22;2.88;;;16.20;99.90;;;;;;6197871;28;20053;-76
2023/09/27 19:03:18;;;;;;;2.95;2.63;;;16.10;99.90;;;;;;6197195;28;20042;-76
2023/09/27 19:06:20;;;;;;;3.78;2.53;;;16.00;99.90;;;;;;6195649;28;20071;-75
2023/09/27 19:09:22;;;;;;;3.17;2.60;;;16.00;99.90;;;;;;6192782;28;20046;-76
2023/09/27 19:12:24;;;;;;;3.08;2.35;;;15.90;99.90;;;;;;6197991;28;20053;-76
2023/09/27 19:15:27;;;;;;;4.22;2.60;;;15.80;99.90;;;;;;6197624;28;20061;-77
2023/09/27 19:18:28;;;;;;;6.53;3.28;;;15.80;99.90;;;;;;6198847;28;20042;-76
2023/09/27 19:21:30;;;;;;;3.20;2.47;;;15.80;99.90;;;;;;6201002;28;20047;-77
2023/09/27 19:24:33;;;;;;;8.63;3.90;;;15.70;99.90;;;;;;6201866;28;20046;-77
2023/09/27 19:27:34;;;;;;;3.50;2.65;;;15.70;99.90;;;;;;6200033;28;20420;-77
2023/09/27 19:30:39;;;;;;;4.70;3.22;;;15.70;99.90;;;;;;6199204;28;20042;-78
2023/09/27 19:33:41;;;;;;;4.38;3.92;;;15.60;99.90;;;;;;6198439;28;20042;-76
2023/09/27 19:36:43;;;;;;;8.98;6.57;;;15.50;99.90;;;;;;6199764;28;20056;-77
2023/09/27 19:39:45;;;;;;;11.13;7.20;;;15.50;99.90;;;;;;6198695;28;20049;-76
2023/09/27 19:42:47;;;;;;;11.55;6.30;;;15.40;99.90;;;;;;6198594;28;20046;-77
2023/09/27 19:45:50;;;;;;;8.30;5.03;;;15.40;99.90;;;;;;6198422;28;20125;-77
2023/09/27 19:48:51;;;;;;;4.80;3.50;;;15.30;99.90;;;;;;6199164;28;20053;-77
2023/09/27 19:51:54;;;;;;;6.47;3.55;;;15.30;99.90;;;;;;6199979;28;20053;-76
2023/09/27 19:54:56;;;;;;;3.45;3.10;;;15.30;99.90;;;;;;6197689;28;20050;-77
2023/09/27 19:58:00;;;;;;;3.25;2.95;;;15.20;99.90;;;;;;6198104;28;20558;-76
2023/09/27 20:01:03;;;;;;;4.10;2.78;;;15.10;99.90;;;;;;6189962;28;20050;-76
2023/09/27 20:04:06;;;;;;;4.78;2.65;;;15.10;99.90;;;;;;6199527;28;20078;-77
2023/09/27 20:07:08;;;;;;;4.63;2.85;;;15.00;99.90;;;;;;6198639;28;20652;-78
2023/09/27 20:10:10;;;;;;;4.22;3.30;;;15.00;99.90;;;;;;6198689;28;20050;-75
2023/09/27 20:13:11;;;;;;;6.30;3.40;;;14.90;99.90;;;;;;6197241;28;20418;-75
2023/09/27 20:16:15;;;;;;;3.78;3.33;;;14.90;99.90;;;;;;6197644;28;20046;-77
2023/09/27 20:19:16;;;;;;;3.05;2.58;;;14.80;99.90;;;;;;6193112;28;20049;-78
2023/09/27 20:22:18;;;;;;;5.53;3.13;;;14.80;99.90;;;;;;6198361;28;20595;-77
2023/09/27 20:25:20;;;;;;;4.97;3.05;;;14.70;99.90;;;;;;6198226;28;20189;-77
2023/09/27 20:28:23;;;;;;;3.28;2.97;;;14.70;99.90;;;;;;6200407;28;20420;-76
2023/09/27 20:31:26;;;;;;;3.60;2.20;;;14.60;99.90;;;;;;6202568;28;20046;-77
2023/09/27 20:34:28;;;;;;;3.33;2.90;;;14.50;99.90;;;;;;6202751;28;20050;-78
2023/09/27 20:37:30;;;;;;;3.03;2.67;;;14.50;99.90;;;;;;6203439;28;20043;-77
2023/09/27 20:40:32;;;;;;;5.22;2.78;;;14.40;99.90;;;;;;6207244;28;20587;-77
2023/09/27 20:43:33;;;;;;;3.95;2.83;;;14.30;99.90;;;;;;6203716;28;20049;-77
2023/09/27 20:46:36;;;;;;;5.13;2.85;;;14.20;99.90;;;;;;6203679;28;20484;-77
2023/09/27 20:49:38;;;;;;;4.03;2.80;;;14.20;99.90;;;;;;6204162;28;20049;-77
2023/09/27 20:52:40;;;;;;;4.15;3.75;;;14.10;99.90;;;;;;6203781;28;20499;-77
2023/09/27 20:55:41;;;;;;;4.32;3.75;;;14.10;99.90;;;;;;6202270;28;20073;-77
2023/09/27 20:58:43;;;;;;;3.28;2.30;;;14.00;99.90;;;;;;6203163;28;20038;-77
2023/09/27 21:01:46;;;;;;;3.55;2.83;;;13.90;99.90;;;;;;6203986;28;20046;-76
2023/09/27 21:04:48;;;;;;;4.75;3.05;;;13.80;99.90;;;;;;6209896;28;20056;-76
2023/09/27 21:07:50;;;;;;;5.03;3.63;;;13.70;99.90;;;;;;6208784;28;20046;-77
2023/09/27 21:10:52;;;;;;;2.60;2.40;;;13.70;99.90;;;;;;6203263;28;20408;-77
2023/09/27 21:13:56;;;;;;;3.50;2.83;;;13.70;99.90;;;;;;6202991;28;20050;-77
2023/09/27 21:17:00;;;;;;;3.92;3.35;;;13.70;99.90;;;;;;6202395;28;20113;-77
2023/09/27 21:20:02;;;;;;;4.38;3.70;;;13.60;99.90;;;;;;6200289;28;20054;-77
2023/09/27 21:23:04;;;;;;;5.55;3.63;;;13.60;99.90;;;;;;6200011;28;20053;-78
2023/09/27 21:26:08;;;;;;;4.47;3.58;;;13.60;99.90;;;;;;6191440;28;20554;-77
2023/09/27 21:29:10;;;;;;;4.93;3.92;;;13.60;99.90;;;;;;6197847;28;20042;-76
2023/09/27 21:32:13;;;;;;;4.75;4.20;;;13.60;99.90;;;;;;6199991;28;20050;-77
2023/09/27 21:35:14;;;;;;;3.72;3.17;;;13.60;99.90;;;;;;6197778;28;20056;-77
2023/09/27 21:38:16;;;;;;;3.17;2.90;;;13.60;99.90;;;;;;6199568;28;20050;-77
2023/09/27 21:41:18;;;;;;;3.42;3.00;;;13.60;99.90;;;;;;6198815;28;20042;-77
2023/09/27 21:44:21;;;;;;;3.75;3.45;;;13.50;99.90;;;;;;6152453;28;20061;-77
2023/09/27 21:47:24;;;;;;;4.22;3.35;;;13.50;99.90;;;;;;6199176;28;20043;-77
2023/09/27 21:50:26;;;;;;;3.42;3.10;;;13.40;99.90;;;;;;6198807;28;20072;-77
2023/09/27 21:53:28;;;;;;;3.78;2.85;;;13.40;99.90;;;;;;6198959;28;20185;-77
2023/09/27 21:56:29;;;;;;;5.22;3.40;;;13.40;99.90;;;;;;6199420;28;20050;-77
2023/09/27 21:59:31;;;;;;;5.35;3.83;;;13.30;99.90;;;;;;6199135;28;20039;-77
2023/09/27 22:02:34;;;;;;;4.68;3.78;;;13.30;99.90;;;;;;6198906;28;20068;-76
2023/09/27 22:05:36;;;;;;;3.03;2.72;;;13.30;99.90;;;;;;6198456;28;20061;-77
2023/09/27 22:08:38;;;;;;;3.38;3.05;;;13.30;99.90;;;;;;6199253;28;20180;-77
2023/09/27 22:11:40;;;;;;;4.70;4.20;;;13.30;99.90;;;;;;6198693;28;20045;-77
2023/09/27 22:14:46;;;;;;;6.75;3.38;;;13.30;99.90;;;;;;6198302;28;20049;-77
2023/09/27 22:17:54;;;;;;;3.42;2.70;;;13.30;99.90;;;;;;6198498;28;20056;-77
2023/09/27 22:20:56;;;;;;;3.70;2.90;;;13.30;99.90;;;;;;6198349;28;20046;-77
2023/09/27 22:24:08;;;;;;;3.97;3.15;;;13.30;99.90;;;;;;6198677;28;20061;-77
2023/09/27 22:27:10;;;;;;;3.20;2.88;;;13.30;99.90;;;;;;6190564;28;20046;-77
2023/09/27 22:30:13;;;;;;;4.05;3.38;;;13.20;99.90;;;;;;6198415;28;20047;-77
2023/09/27 22:33:18;;;;;;;3.88;3.55;;;13.20;99.90;;;;;;6197489;28;20049;-76
2023/09/27 22:36:20;;;;;;;3.45;3.15;;;13.20;99.90;;;;;;6198570;28;20057;-77
2023/09/27 22:39:21;;;;;;;5.88;4.10;;;13.10;99.90;;;;;;6198037;28;20042;-77
2023/09/27 22:42:23;;;;;;;4.25;3.22;;;13.20;99.90;;;;;;6197836;28;20049;-78
2023/09/27 22:45:35;;;;;;;4.38;3.50;;;13.20;99.90;;;;;;6197725;28;20042;-78
2023/09/27 22:48:38;;;;;;;5.68;3.95;;;13.30;99.90;;;;;;6198436;28;20050;-76
2023/09/27 22:51:44;;;;;;;3.50;2.83;;;13.30;99.90;;;;;;6196708;28;20050;-77
2023/09/27 22:54:46;;;;;;;10.32;4.18;;;13.30;99.90;;;;;;6197417;28;20053;-77
2023/09/27 22:57:49;;;;;;;8.05;3.30;;;13.30;99.90;;;;;;6197603;28;20049;-77
2023/09/27 23:00:56;;;;;;;4.55;3.97;;;13.30;99.90;;;;;;6198445;28;20046;-76
2023/09/27 23:04:00;;;;;;;6.10;3.25;;;13.30;99.90;;;;;;6197404;28;20054;-76
2023/09/27 23:07:01;;;;;;;9.23;3.25;;;13.30;99.90;;;;;;6197274;28;20046;-77
2023/09/27 23:10:04;;;;;;;8.93;3.85;;;13.20;99.90;;;;;;6197024;28;20042;-76
2023/09/27 23:13:23;;;;;;;6.03;3.38;;;13.20;99.90;;;;;;6197069;28;20057;-76
2023/09/27 23:16:33;;;;;;;5.68;3.50;;;13.20;99.90;;;;;;6191739;28;20054;-76
2023/09/27 23:19:43;;;;;;;6.60;3.83;;;13.20;99.90;;;;;;6198383;28;20043;-76
2023/09/27 23:22:56;;;;;;;4.90;3.75;;;13.20;99.90;;;;;;6201986;28;20127;-78
2023/09/27 23:26:00;;;;;;;4.47;3.42;;;13.20;99.90;;;;;;6201817;28;20076;-76
2023/09/27 23:32:23;;;;;;;3.67;3.38;;;13.20;99.90;;;;;;6193812;28;20118;-79
2023/09/27 23:35:29;;;;;;;4.97;3.03;;;13.20;99.90;;;;;;6199089;28;20057;-78
2023/09/27 23:38:55;;;;;;;4.20;3.35;;;13.20;99.90;;;;;;6205238;28;20056;-79
2023/09/27 23:42:01;;;;;;;3.38;2.55;;;13.20;99.90;;;;;;6205915;28;20047;-79
2023/09/27 23:45:08;;;;;;;3.15;2.88;;;13.20;99.90;;;;;;6197800;28;20050;-77
2023/09/27 23:48:11;;;;;;;4.27;3.23;;;13.20;99.90;;;;;;6198178;28;20050;-76
2023/09/27 23:51:15;;;;;;;2.92;2.72;;;13.20;99.90;;;;;;6188284;28;20825;-76
2023/09/27 23:54:17;;;;;;;4.95;4.10;;;13.20;99.90;;;;;;6196284;28;20046;-77
2023/09/27 23:57:19;;;;;;;4.03;3.63;;;13.10;99.90;;;;;;6196612;28;20046;-76
